sensor_id;sensor_type;location;lat;lon;timestamp;temperature;humidity
13598;DHT22;38563;54.258;12.574;2023-10-31T00:01:50;10.20;99.90
13598;DHT22;38563;54.258;12.574;2023-10-31T00:04:17;10.20;99.90
13598;DHT22;38563;54.258;12.574;2023-10-31T00:06:43;10.20;99.90
13598;DHT22;38563;54.258;12.574;2023-10-31T00:09:10;10.20;99.90
13598;DHT22;38563;54.258;12.574;2023-10-31T00:11:41;10.30;99.90
13598;DHT22;38563;54.258;12.574;2023-10-31T00:14:07;10.20;99.90
13598;DHT22;38563;54.258;12.574;2023-10-31T00:16:34;10.20;99.90
13598;DHT22;38563;54.258;12.574;2023-10-31T00:19:01;10.20;99.90
13598;DHT22;38563;54.258;12.574;2023-10-31T00:21:28;10.20;99.90
13598;DHT22;38563;54.258;12.574;2023-10-31T00:23:54;10.20;99.90
13598;DHT22;38563;54.258;12.574;2023-10-31T00:26:21;10.10;99.90
13598;DHT22;38563;54.258;12.574;2023-10-31T00:28:53;10.20;99.90
13598;DHT22;38563;54.258;12.574;2023-10-31T00:31:20;10.20;99.90
13598;DHT22;38563;54.258;12.574;2023-10-31T00:33:47;10.20;99.90
13598;DHT22;38563;54.258;12.574;2023-10-31T00:36:13;10.10;99.90
13598;DHT22;38563;54.258;12.574;2023-10-31T00:38:40;10.20;99.90
13598;DHT22;38563;54.258;12.574;2023-10-31T00:41:07;10.10;99.90
13598;DHT22;38563;54.258;12.574;2023-10-31T00:43:34;10.20;99.90
13598;DHT22;38563;54.258;12.574;2023-10-31T00:46:03;10.20;99.90
13598;DHT22;38563;54.258;12.574;2023-10-31T00:48:30;10.10;99.90
13598;DHT22;38563;54.258;12.574;2023-10-31T00:51:02;10.10;99.90
13598;DHT22;38563;54.258;12.574;2023-10-31T00:53:28;10.20;99.90
13598;DHT22;38563;54.258;12.574;2023-10-31T00:55:55;10.10;99.90
13598;DHT22;38563;54.258;12.574;2023-10-31T00:58:22;10.10;99.90
13598;DHT22;38563;54.258;12.574;2023-10-31T01:00:48;10.10;99.90
13598;DHT22;38563;54.258;12.574;2023-10-31T01:03:17;10.10;99.90
13598;DHT22;38563;54.258;12.574;2023-10-31T01:05:43;10.10;99.90
13598;DHT22;38563;54.258;12.574;2023-10-31T01:08:10;10.20;99.90
13598;DHT22;38563;54.258;12.574;2023-10-31T01:10:37;10.10;99.90
13598;DHT22;38563;54.258;12.574;2023-10-31T01:13:03;10.20;99.90
13598;DHT22;38563;54.258;12.574;2023-10-31T01:15:30;10.20;99.90
13598;DHT22;38563;54.258;12.574;2023-10-31T01:17:58;10.10;99.90
13598;DHT22;38563;54.258;12.574;2023-10-31T01:20:26;10.20;99.90
13598;DHT22;38563;54.258;12.574;2023-10-31T01:22:53;10.20;99.90
13598;DHT22;38563;54.258;12.574;2023-10-31T01:25:20;10.10;99.90
13598;DHT22;38563;54.258;12.574;2023-10-31T01:27:46;10.20;99.90
13598;DHT22;38563;54.258;12.574;2023-10-31T01:30:13;10.20;99.90
13598;DHT22;38563;54.258;12.574;2023-10-31T01:32:40;10.10;99.90
13598;DHT22;38563;54.258;12.574;2023-10-31T01:35:07;10.10;99.90
13598;DHT22;38563;54.258;12.574;2023-10-31T01:37:35;10.20;99.90
13598;DHT22;38563;54.258;12.574;2023-10-31T01:40:03;10.10;99.90
13598;DHT22;38563;54.258;12.574;2023-10-31T01:42:30;10.10;99.90
13598;DHT22;38563;54.258;12.574;2023-10-31T01:44:56;10.20;99.90
13598;DHT22;38563;54.258;12.574;2023-10-31T01:47:23;10.20;99.90
13598;DHT22;38563;54.258;12.574;2023-10-31T01:49:50;10.20;99.90
13598;DHT22;38563;54.258;12.574;2023-10-31T01:52:17;10.20;99.90
13598;DHT22;38563;54.258;12.574;2023-10-31T01:54:47;10.20;99.90
13598;DHT22;38563;54.258;12.574;2023-10-31T01:57:14;10.20;99.90
13598;DHT22;38563;54.258;12.574;2023-10-31T01:59:41;10.20;99.90
13598;DHT22;38563;54.258;12.574;2023-10-31T02:02:08;10.30;99.90
13598;DHT22;38563;54.258;12.574;2023-10-31T02:04:35;10.30;99.90
13598;DHT22;38563;54.258;12.574;2023-10-31T02:07:01;10.30;99.90
13598;DHT22;38563;54.258;12.574;2023-10-31T02:09:28;10.30;99.90
13598;DHT22;38563;54.258;12.574;2023-10-31T02:11:57;10.30;99.90
13598;DHT22;38563;54.258;12.574;2023-10-31T02:14:23;10.30;99.90
13598;DHT22;38563;54.258;12.574;2023-10-31T02:16:50;10.30;99.90
13598;DHT22;38563;54.258;12.574;2023-10-31T02:19:19;10.30;99.90
13598;DHT22;38563;54.258;12.574;2023-10-31T02:21:48;10.30;99.90
13598;DHT22;38563;54.258;12.574;2023-10-31T02:24:14;10.30;99.90
13598;DHT22;38563;54.258;12.574;2023-10-31T02:26:41;10.30;99.90
13598;DHT22;38563;54.258;12.574;2023-10-31T02:29:08;10.30;99.90
13598;DHT22;38563;54.258;12.574;2023-10-31T02:31:35;10.20;99.90
13598;DHT22;38563;54.258;12.574;2023-10-31T02:34:02;10.30;99.90
13598;DHT22;38563;54.258;12.574;2023-10-31T02:36:30;10.30;99.90
13598;DHT22;38563;54.258;12.574;2023-10-31T02:39:00;10.30;99.90
13598;DHT22;38563;54.258;12.574;2023-10-31T02:41:28;10.30;99.90
13598;DHT22;38563;54.258;12.574;2023-10-31T02:43:54;10.30;99.90
13598;DHT22;38563;54.258;12.574;2023-10-31T02:46:22;10.20;99.90
13598;DHT22;38563;54.258;12.574;2023-10-31T02:48:49;10.30;99.90
13598;DHT22;38563;54.258;12.574;2023-10-31T02:51:15;10.20;99.90
13598;DHT22;38563;54.258;12.574;2023-10-31T02:53:42;10.20;99.90
13598;DHT22;38563;54.258;12.574;2023-10-31T02:56:10;10.20;99.90
13598;DHT22;38563;54.258;12.574;2023-10-31T02:58:37;10.30;99.90
13598;DHT22;38563;54.258;12.574;2023-10-31T03:01:04;10.40;99.90
13598;DHT22;38563;54.258;12.574;2023-10-31T03:03:31;10.30;99.90
13598;DHT22;38563;54.258;12.574;2023-10-31T03:05:59;10.30;99.90
13598;DHT22;38563;54.258;12.574;2023-10-31T03:08:26;10.30;99.90
13598;DHT22;38563;54.258;12.574;2023-10-31T03:10:53;10.30;99.90
13598;DHT22;38563;54.258;12.574;2023-10-31T03:13:21;10.30;99.90
13598;DHT22;38563;54.258;12.574;2023-10-31T03:15:49;10.30;99.90
13598;DHT22;38563;54.258;12.574;2023-10-31T03:18:15;10.30;99.90
13598;DHT22;38563;54.258;12.574;2023-10-31T03:20:44;10.40;99.90
13598;DHT22;38563;54.258;12.574;2023-10-31T03:23:12;10.40;99.90
13598;DHT22;38563;54.258;12.574;2023-10-31T03:25:39;10.40;99.90
13598;DHT22;38563;54.258;12.574;2023-10-31T03:28:17;10.40;99.90
13598;DHT22;38563;54.258;12.574;2023-10-31T03:30:46;10.40;99.90
13598;DHT22;38563;54.258;12.574;2023-10-31T03:33:13;10.40;99.90
13598;DHT22;38563;54.258;12.574;2023-10-31T03:35:40;10.40;99.90
13598;DHT22;38563;54.258;12.574;2023-10-31T03:38:07;10.40;99.90
13598;DHT22;38563;54.258;12.574;2023-10-31T03:40:34;10.40;99.90
13598;DHT22;38563;54.258;12.574;2023-10-31T03:43:00;10.40;99.90
13598;DHT22;38563;54.258;12.574;2023-10-31T03:45:29;10.40;99.90
13598;DHT22;38563;54.258;12.574;2023-10-31T03:47:57;10.40;99.90
13598;DHT22;38563;54.258;12.574;2023-10-31T03:50:23;10.40;99.90
13598;DHT22;38563;54.258;12.574;2023-10-31T03:52:50;10.40;99.90
13598;DHT22;38563;54.258;12.574;2023-10-31T03:55:18;10.40;99.90
13598;DHT22;38563;54.258;12.574;2023-10-31T03:57:45;10.40;99.90
13598;DHT22;38563;54.258;12.574;2023-10-31T04:00:12;10.40;99.90
13598;DHT22;38563;54.258;12.574;2023-10-31T04:02:39;10.40;99.90
13598;DHT22;38563;54.258;12.574;2023-10-31T04:05:08;10.40;99.90
13598;DHT22;38563;54.258;12.574;2023-10-31T04:07:35;10.50;99.90
13598;DHT22;38563;54.258;12.574;2023-10-31T04:10:04;10.50;99.90
13598;DHT22;38563;54.258;12.574;2023-10-31T04:12:31;10.50;99.90
13598;DHT22;38563;54.258;12.574;2023-10-31T04:14:58;10.50;99.90
13598;DHT22;38563;54.258;12.574;2023-10-31T04:17:24;10.50;99.90
13598;DHT22;38563;54.258;12.574;2023-10-31T04:19:51;10.50;99.90
13598;DHT22;38563;54.258;12.574;2023-10-31T04:22:19;10.40;99.90
13598;DHT22;38563;54.258;12.574;2023-10-31T04:24:46;10.50;99.90
13598;DHT22;38563;54.258;12.574;2023-10-31T04:27:12;10.50;99.90
13598;DHT22;38563;54.258;12.574;2023-10-31T04:29:39;10.50;99.90
13598;DHT22;38563;54.258;12.574;2023-10-31T04:32:06;10.50;99.90
13598;DHT22;38563;54.258;12.574;2023-10-31T04:34:33;10.50;99.90
13598;DHT22;38563;54.258;12.574;2023-10-31T04:36:59;10.50;99.90
13598;DHT22;38563;54.258;12.574;2023-10-31T04:39:27;10.50;99.90
13598;DHT22;38563;54.258;12.574;2023-10-31T04:41:54;10.50;99.90
13598;DHT22;38563;54.258;12.574;2023-10-31T04:44:21;10.50;99.90
13598;DHT22;38563;54.258;12.574;2023-10-31T04:46:48;10.50;99.90
13598;DHT22;38563;54.258;12.574;2023-10-31T04:49:14;10.50;99.90
13598;DHT22;38563;54.258;12.574;2023-10-31T04:51:41;10.50;99.90
13598;DHT22;38563;54.258;12.574;2023-10-31T04:54:08;10.50;99.90
13598;DHT22;38563;54.258;12.574;2023-10-31T04:56:37;10.50;99.90
13598;DHT22;38563;54.258;12.574;2023-10-31T04:59:03;10.50;99.90
13598;DHT22;38563;54.258;12.574;2023-10-31T05:01:31;10.50;99.90
13598;DHT22;38563;54.258;12.574;2023-10-31T05:03:57;10.50;99.90
13598;DHT22;38563;54.258;12.574;2023-10-31T05:06:24;10.40;99.90
13598;DHT22;38563;54.258;12.574;2023-10-31T05:08:51;10.40;99.90
13598;DHT22;38563;54.258;12.574;2023-10-31T05:11:17;10.40;99.90
13598;DHT22;38563;54.258;12.574;2023-10-31T05:13:46;10.40;99.90
13598;DHT22;38563;54.258;12.574;2023-10-31T05:16:12;10.40;99.90
13598;DHT22;38563;54.258;12.574;2023-10-31T05:18:39;10.40;99.90
13598;DHT22;38563;54.258;12.574;2023-10-31T05:21:06;10.50;99.90
13598;DHT22;38563;54.258;12.574;2023-10-31T05:23:32;10.50;99.90
13598;DHT22;38563;54.258;12.574;2023-10-31T05:25:59;10.50;99.90
13598;DHT22;38563;54.258;12.574;2023-10-31T05:28:26;10.50;99.90
13598;DHT22;38563;54.258;12.574;2023-10-31T05:30:54;10.50;99.90
13598;DHT22;38563;54.258;12.574;2023-10-31T05:33:20;10.50;99.90
13598;DHT22;38563;54.258;12.574;2023-10-31T05:35:48;10.50;99.90
13598;DHT22;38563;54.258;12.574;2023-10-31T05:38:16;10.50;99.90
13598;DHT22;38563;54.258;12.574;2023-10-31T05:40:42;10.50;99.90
13598;DHT22;38563;54.258;12.574;2023-10-31T05:43:09;10.50;99.90
13598;DHT22;38563;54.258;12.574;2023-10-31T05:45:36;10.50;99.90
13598;DHT22;38563;54.258;12.574;2023-10-31T05:48:04;10.50;99.90
13598;DHT22;38563;54.258;12.574;2023-10-31T05:50:31;10.50;99.90
13598;DHT22;38563;54.258;12.574;2023-10-31T05:52:58;10.50;99.90
13598;DHT22;38563;54.258;12.574;2023-10-31T05:55:24;10.50;99.90
13598;DHT22;38563;54.258;12.574;2023-10-31T05:57:51;10.60;99.90
13598;DHT22;38563;54.258;12.574;2023-10-31T06:00:18;10.60;99.90
13598;DHT22;38563;54.258;12.574;2023-10-31T06:02:45;10.60;99.90
13598;DHT22;38563;54.258;12.574;2023-10-31T06:05:13;10.60;99.90
13598;DHT22;38563;54.258;12.574;2023-10-31T06:07:39;10.60;99.90
13598;DHT22;38563;54.258;12.574;2023-10-31T06:10:07;10.60;99.90
13598;DHT22;38563;54.258;12.574;2023-10-31T06:12:34;10.60;99.90
13598;DHT22;38563;54.258;12.574;2023-10-31T06:15:01;10.70;99.90
13598;DHT22;38563;54.258;12.574;2023-10-31T06:17:28;10.60;99.90
13598;DHT22;38563;54.258;12.574;2023-10-31T06:19:58;10.60;99.90
13598;DHT22;38563;54.258;12.574;2023-10-31T06:22:27;10.60;99.90
13598;DHT22;38563;54.258;12.574;2023-10-31T06:24:53;10.60;99.90
13598;DHT22;38563;54.258;12.574;2023-10-31T06:27:20;10.70;99.90
13598;DHT22;38563;54.258;12.574;2023-10-31T06:29:47;10.60;99.90
13598;DHT22;38563;54.258;12.574;2023-10-31T06:32:13;10.60;99.90
13598;DHT22;38563;54.258;12.574;2023-10-31T06:34:40;10.70;99.90
13598;DHT22;38563;54.258;12.574;2023-10-31T06:37:07;10.70;99.90
13598;DHT22;38563;54.258;12.574;2023-10-31T06:39:35;10.60;99.90
13598;DHT22;38563;54.258;12.574;2023-10-31T06:42:01;10.60;99.90
13598;DHT22;38563;54.258;12.574;2023-10-31T06:44:28;10.60;99.90
13598;DHT22;38563;54.258;12.574;2023-10-31T06:46:54;10.70;99.90
13598;DHT22;38563;54.258;12.574;2023-10-31T06:49:20;10.70;99.90
13598;DHT22;38563;54.258;12.574;2023-10-31T06:51:48;10.70;99.90
13598;DHT22;38563;54.258;12.574;2023-10-31T06:54:14;10.70;99.90
13598;DHT22;38563;54.258;12.574;2023-10-31T06:56:42;10.70;99.90
13598;DHT22;38563;54.258;12.574;2023-10-31T06:59:09;10.70;99.90
13598;DHT22;38563;54.258;12.574;2023-10-31T07:01:36;10.70;99.90
13598;DHT22;38563;54.258;12.574;2023-10-31T07:04:03;10.70;99.90
13598;DHT22;38563;54.258;12.574;2023-10-31T07:06:30;10.70;99.90
13598;DHT22;38563;54.258;12.574;2023-10-31T07:08:57;10.80;99.90
13598;DHT22;38563;54.258;12.574;2023-10-31T07:11:25;10.80;99.90
13598;DHT22;38563;54.258;12.574;2023-10-31T07:13:53;10.80;99.90
13598;DHT22;38563;54.258;12.574;2023-10-31T07:16:20;10.90;99.90
13598;DHT22;38563;54.258;12.574;2023-10-31T07:18:47;10.90;99.90
13598;DHT22;38563;54.258;12.574;2023-10-31T07:21:13;10.90;99.90
13598;DHT22;38563;54.258;12.574;2023-10-31T07:23:40;10.90;99.90
13598;DHT22;38563;54.258;12.574;2023-10-31T07:26:07;10.90;99.90
13598;DHT22;38563;54.258;12.574;2023-10-31T07:28:33;10.90;99.90
13598;DHT22;38563;54.258;12.574;2023-10-31T07:31:02;11.00;99.90
13598;DHT22;38563;54.258;12.574;2023-10-31T07:33:29;11.00;99.90
13598;DHT22;38563;54.258;12.574;2023-10-31T07:35:55;11.00;99.90
13598;DHT22;38563;54.258;12.574;2023-10-31T07:38:22;11.10;99.90
13598;DHT22;38563;54.258;12.574;2023-10-31T07:40:49;11.10;99.90
13598;DHT22;38563;54.258;12.574;2023-10-31T07:43:16;11.20;99.90
13598;DHT22;38563;54.258;12.574;2023-10-31T07:45:42;11.20;99.90
13598;DHT22;38563;54.258;12.574;2023-10-31T07:48:10;11.20;99.90
13598;DHT22;38563;54.258;12.574;2023-10-31T07:50:37;11.20;99.90
13598;DHT22;38563;54.258;12.574;2023-10-31T07:53:04;11.20;99.90
13598;DHT22;38563;54.258;12.574;2023-10-31T07:55:30;11.20;99.90
13598;DHT22;38563;54.258;12.574;2023-10-31T07:57:57;11.20;99.90
13598;DHT22;38563;54.258;12.574;2023-10-31T08:00:24;11.30;99.90
13598;DHT22;38563;54.258;12.574;2023-10-31T08:02:51;11.30;99.90
13598;DHT22;38563;54.258;12.574;2023-10-31T08:05:19;11.40;99.90
13598;DHT22;38563;54.258;12.574;2023-10-31T08:07:45;11.40;99.90
13598;DHT22;38563;54.258;12.574;2023-10-31T08:10:13;11.40;99.90
13598;DHT22;38563;54.258;12.574;2023-10-31T08:12:39;11.50;99.90
13598;DHT22;38563;54.258;12.574;2023-10-31T08:15:06;11.50;99.90
13598;DHT22;38563;54.258;12.574;2023-10-31T08:17:34;11.50;99.90
13598;DHT22;38563;54.258;12.574;2023-10-31T08:20:01;11.50;99.90
13598;DHT22;38563;54.258;12.574;2023-10-31T08:22:30;11.50;99.90
13598;DHT22;38563;54.258;12.574;2023-10-31T08:24:57;11.50;99.90
13598;DHT22;38563;54.258;12.574;2023-10-31T08:27:24;11.50;99.90
13598;DHT22;38563;54.258;12.574;2023-10-31T08:29:51;11.50;99.90
13598;DHT22;38563;54.258;12.574;2023-10-31T08:32:17;11.60;99.90
13598;DHT22;38563;54.258;12.574;2023-10-31T08:34:44;11.70;99.90
13598;DHT22;38563;54.258;12.574;2023-10-31T08:37:11;11.70;99.90
13598;DHT22;38563;54.258;12.574;2023-10-31T08:39:39;11.80;99.90
13598;DHT22;38563;54.258;12.574;2023-10-31T08:42:06;11.80;99.90
13598;DHT22;38563;54.258;12.574;2023-10-31T08:44:33;11.80;99.90
13598;DHT22;38563;54.258;12.574;2023-10-31T08:47:02;11.90;99.90
13598;DHT22;38563;54.258;12.574;2023-10-31T08:49:28;11.90;99.90
13598;DHT22;38563;54.258;12.574;2023-10-31T08:51:55;12.00;99.90
13598;DHT22;38563;54.258;12.574;2023-10-31T08:54:22;12.20;99.90
13598;DHT22;38563;54.258;12.574;2023-10-31T08:56:50;12.30;99.90
13598;DHT22;38563;54.258;12.574;2023-10-31T08:59:17;12.40;99.90
13598;DHT22;38563;54.258;12.574;2023-10-31T09:01:43;12.40;99.90
13598;DHT22;38563;54.258;12.574;2023-10-31T09:04:10;12.50;99.90
13598;DHT22;38563;54.258;12.574;2023-10-31T09:06:37;12.50;99.90
13598;DHT22;38563;54.258;12.574;2023-10-31T09:09:03;12.60;99.90
13598;DHT22;38563;54.258;12.574;2023-10-31T09:11:30;12.60;99.90
13598;DHT22;38563;54.258;12.574;2023-10-31T09:13:58;12.60;99.90
13598;DHT22;38563;54.258;12.574;2023-10-31T09:16:25;12.70;99.90
13598;DHT22;38563;54.258;12.574;2023-10-31T09:18:51;12.80;99.90
13598;DHT22;38563;54.258;12.574;2023-10-31T09:21:18;12.90;99.90
13598;DHT22;38563;54.258;12.574;2023-10-31T09:23:45;12.90;99.90
13598;DHT22;38563;54.258;12.574;2023-10-31T09:26:12;12.90;99.90
13598;DHT22;38563;54.258;12.574;2023-10-31T09:28:39;13.00;99.90
13598;DHT22;38563;54.258;12.574;2023-10-31T09:31:09;13.00;99.90
13598;DHT22;38563;54.258;12.574;2023-10-31T09:33:36;13.00;99.90
13598;DHT22;38563;54.258;12.574;2023-10-31T09:36:03;13.10;99.90
13598;DHT22;38563;54.258;12.574;2023-10-31T09:38:30;13.10;99.90
13598;DHT22;38563;54.258;12.574;2023-10-31T09:40:57;13.10;99.90
13598;DHT22;38563;54.258;12.574;2023-10-31T09:43:23;13.10;99.90
13598;DHT22;38563;54.258;12.574;2023-10-31T09:45:51;13.00;99.90
13598;DHT22;38563;54.258;12.574;2023-10-31T09:48:19;13.00;99.90
13598;DHT22;38563;54.258;12.574;2023-10-31T09:50:47;13.00;99.90
13598;DHT22;38563;54.258;12.574;2023-10-31T09:53:14;13.00;99.90
13598;DHT22;38563;54.258;12.574;2023-10-31T09:55:42;13.00;99.90
13598;DHT22;38563;54.258;12.574;2023-10-31T09:58:08;13.10;99.90
13598;DHT22;38563;54.258;12.574;2023-10-31T10:00:35;13.00;99.90
13598;DHT22;38563;54.258;12.574;2023-10-31T10:03:03;13.00;99.90
13598;DHT22;38563;54.258;12.574;2023-10-31T10:05:32;13.00;99.90
13598;DHT22;38563;54.258;12.574;2023-10-31T10:07:59;12.90;99.90
13598;DHT22;38563;54.258;12.574;2023-10-31T10:10:26;12.90;99.90
13598;DHT22;38563;54.258;12.574;2023-10-31T10:12:55;13.00;99.90
13598;DHT22;38563;54.258;12.574;2023-10-31T10:15:22;13.20;99.90
13598;DHT22;38563;54.258;12.574;2023-10-31T10:17:49;13.20;99.90
13598;DHT22;38563;54.258;12.574;2023-10-31T10:20:17;13.10;99.90
13598;DHT22;38563;54.258;12.574;2023-10-31T10:22:46;13.00;99.90
13598;DHT22;38563;54.258;12.574;2023-10-31T10:25:15;13.00;99.90
13598;DHT22;38563;54.258;12.574;2023-10-31T10:27:42;12.90;99.90
13598;DHT22;38563;54.258;12.574;2023-10-31T10:30:10;12.90;99.90
13598;DHT22;38563;54.258;12.574;2023-10-31T10:32:37;13.00;99.90
13598;DHT22;38563;54.258;12.574;2023-10-31T10:35:06;13.00;99.90
13598;DHT22;38563;54.258;12.574;2023-10-31T10:37:37;13.00;99.90
13598;DHT22;38563;54.258;12.574;2023-10-31T10:40:07;12.90;99.90
13598;DHT22;38563;54.258;12.574;2023-10-31T10:42:41;12.80;99.90
13598;DHT22;38563;54.258;12.574;2023-10-31T10:45:10;12.70;99.90
13598;DHT22;38563;54.258;12.574;2023-10-31T10:47:39;12.60;99.90
13598;DHT22;38563;54.258;12.574;2023-10-31T10:50:07;12.50;99.90
13598;DHT22;38563;54.258;12.574;2023-10-31T10:52:41;12.50;99.90
13598;DHT22;38563;54.258;12.574;2023-10-31T10:55:12;12.40;99.90
13598;DHT22;38563;54.258;12.574;2023-10-31T10:57:46;12.40;99.90
13598;DHT22;38563;54.258;12.574;2023-10-31T11:00:14;12.40;99.90
13598;DHT22;38563;54.258;12.574;2023-10-31T11:02:43;12.40;99.90
13598;DHT22;38563;54.258;12.574;2023-10-31T11:05:11;12.40;99.90
13598;DHT22;38563;54.258;12.574;2023-10-31T11:07:39;12.40;99.90
13598;DHT22;38563;54.258;12.574;2023-10-31T11:10:08;12.50;99.90
13598;DHT22;38563;54.258;12.574;2023-10-31T11:12:37;12.50;99.90
13598;DHT22;38563;54.258;12.574;2023-10-31T11:15:06;12.40;99.90
13598;DHT22;38563;54.258;12.574;2023-10-31T11:17:35;12.40;99.90
13598;DHT22;38563;54.258;12.574;2023-10-31T11:20:03;12.30;99.90
13598;DHT22;38563;54.258;12.574;2023-10-31T11:22:38;12.30;99.90
13598;DHT22;38563;54.258;12.574;2023-10-31T11:25:07;12.20;99.90
13598;DHT22;38563;54.258;12.574;2023-10-31T11:27:35;12.30;99.90
13598;DHT22;38563;54.258;12.574;2023-10-31T11:30:05;12.20;99.90
13598;DHT22;38563;54.258;12.574;2023-10-31T11:32:32;12.20;99.90
13598;DHT22;38563;54.258;12.574;2023-10-31T11:34:59;12.10;99.90
13598;DHT22;38563;54.258;12.574;2023-10-31T11:37:31;12.10;99.90
13598;DHT22;38563;54.258;12.574;2023-10-31T11:40:16;12.10;99.90
13598;DHT22;38563;54.258;12.574;2023-10-31T11:42:47;12.10;99.90
13598;DHT22;38563;54.258;12.574;2023-10-31T11:45:25;12.10;99.90
13598;DHT22;38563;54.258;12.574;2023-10-31T11:47:52;12.10;99.90
13598;DHT22;38563;54.258;12.574;2023-10-31T11:50:19;12.10;99.90
13598;DHT22;38563;54.258;12.574;2023-10-31T11:52:58;12.10;99.90
13598;DHT22;38563;54.258;12.574;2023-10-31T11:55:25;12.10;99.90
13598;DHT22;38563;54.258;12.574;2023-10-31T11:57:53;12.20;99.90
13598;DHT22;38563;54.258;12.574;2023-10-31T12:00:21;12.40;99.90
13598;DHT22;38563;54.258;12.574;2023-10-31T12:02:58;12.50;99.90
13598;DHT22;38563;54.258;12.574;2023-10-31T12:05:25;12.40;99.90
13598;DHT22;38563;54.258;12.574;2023-10-31T12:07:53;12.40;99.90
13598;DHT22;38563;54.258;12.574;2023-10-31T12:10:24;12.30;99.90
13598;DHT22;38563;54.258;12.574;2023-10-31T12:12:53;12.20;99.90
13598;DHT22;38563;54.258;12.574;2023-10-31T12:15:20;12.10;99.90
13598;DHT22;38563;54.258;12.574;2023-10-31T12:17:48;12.10;99.90
13598;DHT22;38563;54.258;12.574;2023-10-31T12:20:15;12.10;99.90
13598;DHT22;38563;54.258;12.574;2023-10-31T12:22:42;12.10;99.90
13598;DHT22;38563;54.258;12.574;2023-10-31T12:25:10;12.10;99.90
13598;DHT22;38563;54.258;12.574;2023-10-31T12:27:44;12.10;99.90
13598;DHT22;38563;54.258;12.574;2023-10-31T12:30:14;12.10;99.90
13598;DHT22;38563;54.258;12.574;2023-10-31T12:32:41;12.10;99.90
13598;DHT22;38563;54.258;12.574;2023-10-31T12:35:10;12.10;99.90
13598;DHT22;38563;54.258;12.574;2023-10-31T12:37:43;12.10;99.90
13598;DHT22;38563;54.258;12.574;2023-10-31T12:40:10;12.00;99.90
13598;DHT22;38563;54.258;12.574;2023-10-31T12:42:37;11.90;99.90
13598;DHT22;38563;54.258;12.574;2023-10-31T12:45:05;11.70;99.90
13598;DHT22;38563;54.258;12.574;2023-10-31T12:47:33;11.60;99.90
13598;DHT22;38563;54.258;12.574;2023-10-31T12:50:08;11.50;99.90
13598;DHT22;38563;54.258;12.574;2023-10-31T12:52:49;11.50;99.90
13598;DHT22;38563;54.258;12.574;2023-10-31T12:55:18;11.50;99.90
13598;DHT22;38563;54.258;12.574;2023-10-31T12:57:45;11.50;99.90
13598;DHT22;38563;54.258;12.574;2023-10-31T13:00:14;11.60;99.90
13598;DHT22;38563;54.258;12.574;2023-10-31T13:02:43;11.60;99.90
13598;DHT22;38563;54.258;12.574;2023-10-31T13:05:11;11.60;99.90
13598;DHT22;38563;54.258;12.574;2023-10-31T13:07:39;11.60;99.90
13598;DHT22;38563;54.258;12.574;2023-10-31T13:10:07;11.60;99.90
13598;DHT22;38563;54.258;12.574;2023-10-31T13:12:35;11.60;99.90
13598;DHT22;38563;54.258;12.574;2023-10-31T13:15:03;11.00;99.90
13598;DHT22;38563;54.258;12.574;2023-10-31T13:17:29;10.60;99.90
13598;DHT22;38563;54.258;12.574;2023-10-31T13:19:59;10.30;99.90
13598;DHT22;38563;54.258;12.574;2023-10-31T13:22:25;10.10;99.90
13598;DHT22;38563;54.258;12.574;2023-10-31T13:24:52;9.90;99.90
13598;DHT22;38563;54.258;12.574;2023-10-31T13:27:19;9.70;99.90
13598;DHT22;38563;54.258;12.574;2023-10-31T13:29:46;9.50;99.90
13598;DHT22;38563;54.258;12.574;2023-10-31T13:32:15;9.50;99.90
13598;DHT22;38563;54.258;12.574;2023-10-31T13:34:42;9.40;99.90
13598;DHT22;38563;54.258;12.574;2023-10-31T13:37:10;9.20;99.90
13598;DHT22;38563;54.258;12.574;2023-10-31T13:39:37;9.10;99.90
13598;DHT22;38563;54.258;12.574;2023-10-31T13:42:04;9.10;99.90
13598;DHT22;38563;54.258;12.574;2023-10-31T14:22:24;8.50;99.90
13598;DHT22;38563;54.258;12.574;2023-10-31T14:24:51;8.50;99.90
13598;DHT22;38563;54.258;12.574;2023-10-31T14:27:18;8.50;99.90
13598;DHT22;38563;54.258;12.574;2023-10-31T14:29:45;8.40;99.90
13598;DHT22;38563;54.258;12.574;2023-10-31T14:32:12;8.40;99.90
13598;DHT22;38563;54.258;12.574;2023-10-31T14:34:38;8.40;99.90
13598;DHT22;38563;54.258;12.574;2023-10-31T14:37:05;8.50;99.90
13598;DHT22;38563;54.258;12.574;2023-10-31T14:39:33;8.50;99.90
13598;DHT22;38563;54.258;12.574;2023-10-31T14:42:00;8.50;99.90
13598;DHT22;38563;54.258;12.574;2023-10-31T14:44:27;8.50;99.90
13598;DHT22;38563;54.258;12.574;2023-10-31T14:46:52;8.50;99.90
13598;DHT22;38563;54.258;12.574;2023-10-31T14:49:19;8.50;99.90
13598;DHT22;38563;54.258;12.574;2023-10-31T14:51:46;8.60;99.90
13598;DHT22;38563;54.258;12.574;2023-10-31T14:54:12;8.60;99.90
13598;DHT22;38563;54.258;12.574;2023-10-31T14:56:41;8.50;99.90
13598;DHT22;38563;54.258;12.574;2023-10-31T14:59:07;8.40;99.90
13598;DHT22;38563;54.258;12.574;2023-10-31T15:01:34;8.30;99.90
13598;DHT22;38563;54.258;12.574;2023-10-31T15:04:01;8.20;99.90
13598;DHT22;38563;54.258;12.574;2023-10-31T15:06:27;8.30;99.90
13598;DHT22;38563;54.258;12.574;2023-10-31T15:08:54;8.20;99.90
13598;DHT22;38563;54.258;12.574;2023-10-31T15:11:21;8.20;99.90
13598;DHT22;38563;54.258;12.574;2023-10-31T15:13:49;8.20;99.90
13598;DHT22;38563;54.258;12.574;2023-10-31T15:16:16;8.20;99.90
13598;DHT22;38563;54.258;12.574;2023-10-31T15:18:43;8.20;99.90
13598;DHT22;38563;54.258;12.574;2023-10-31T15:21:09;8.20;99.90
13598;DHT22;38563;54.258;12.574;2023-10-31T15:23:36;8.20;99.90
13598;DHT22;38563;54.258;12.574;2023-10-31T15:26:03;8.20;99.90
13598;DHT22;38563;54.258;12.574;2023-10-31T15:28:30;8.20;99.90
13598;DHT22;38563;54.258;12.574;2023-10-31T15:30:58;8.20;99.90
13598;DHT22;38563;54.258;12.574;2023-10-31T15:33:25;8.20;99.90
13598;DHT22;38563;54.258;12.574;2023-10-31T15:35:51;8.20;99.90
13598;DHT22;38563;54.258;12.574;2023-10-31T15:38:18;8.30;99.90
13598;DHT22;38563;54.258;12.574;2023-10-31T15:40:45;8.20;99.90
13598;DHT22;38563;54.258;12.574;2023-10-31T15:43:12;8.20;99.90
13598;DHT22;38563;54.258;12.574;2023-10-31T15:45:39;8.20;99.90
13598;DHT22;38563;54.258;12.574;2023-10-31T15:48:07;8.20;99.90
13598;DHT22;38563;54.258;12.574;2023-10-31T15:50:34;8.10;99.90
13598;DHT22;38563;54.258;12.574;2023-10-31T15:53:02;8.10;99.90
13598;DHT22;38563;54.258;12.574;2023-10-31T15:55:28;8.10;99.90
13598;DHT22;38563;54.258;12.574;2023-10-31T15:57:55;8.00;99.90